Time;durP1;ratioP1;P1;durP2;ratioP2;P2;SDS_P1;SDS_P2;PMS_P1;PMS_P2;Temp;Humidity;BMP_temperature;BMP_pressure;BME280_temperature;BME280_humidity;BME280_pressure;Samples;Min_cycle;Max_cycle;Signal;HPM_P1;HPM_P2
2023/09/26 00:02:06;;;;;;;;;10.00;10.00;;;;;21.67;82.35;101269.81;4884744;29;46871;-86
2023/09/26 00:04:33;;;;;;;;;12.00;12.00;;;;;21.85;82.48;101261.25;4887246;29;45434;-85
2023/09/26 00:07:00;;;;;;;;;10.33;10.33;;;;;21.66;82.21;101263.50;4869378;29;45502;-83
2023/09/26 00:09:27;;;;;;;;;10.00;10.00;;;;;21.81;82.34;101266.78;4884811;29;45444;-83
2023/09/26 00:11:52;;;;;;;;;13.00;12.33;;;;;21.67;82.89;101259.91;4891238;29;46770;-84
2023/09/26 00:14:18;;;;;;;;;9.67;9.00;;;;;21.65;83.17;101260.84;4867672;29;45474;-85
2023/09/26 00:16:43;;;;;;;;;9.67;9.33;;;;;21.67;83.20;101265.31;4884751;29;45459;-85
2023/09/26 00:19:09;;;;;;;;;9.33;9.33;;;;;21.63;83.36;101255.44;4868340;29;45366;-86
2023/09/26 00:21:34;;;;;;;;;8.33;8.33;;;;;21.62;83.83;101256.41;4887006;29;45427;-85
2023/09/26 00:24:00;;;;;;;;;12.00;12.00;;;;;21.70;83.53;101257.09;4888483;29;45296;-86
2023/09/26 00:26:25;;;;;;;;;9.00;9.00;;;;;21.65;83.68;101259.00;4886218;29;45408;-85
2023/09/26 00:28:52;;;;;;;;;8.00;8.00;;;;;21.72;84.04;101257.06;4888800;29;45379;-86
2023/09/26 00:31:17;;;;;;;;;12.67;10.00;;;;;21.69;83.99;101260.75;4886692;29;45938;-85
2023/09/26 00:33:43;;;;;;;;;8.67;8.00;;;;;21.68;83.92;101264.38;4869414;29;45518;-85
2023/09/26 00:36:13;;;;;;;;;9.67;9.67;;;;;21.87;83.99;101253.09;4888141;29;45667;-84
2023/09/26 00:38:39;;;;;;;;;8.67;8.67;;;;;21.69;84.39;101258.03;4870838;29;45385;-85
2023/09/26 00:41:06;;;;;;;;;10.33;10.00;;;;;21.82;84.42;101250.50;4889454;29;45422;-85
2023/09/26 00:43:31;;;;;;;;;11.67;11.67;;;;;21.65;84.37;101263.53;4889480;29;45420;-85
2023/09/26 00:46:00;;;;;;;;;11.00;11.00;;;;;21.75;84.02;101248.84;4888595;29;45468;-83
2023/09/26 00:48:26;;;;;;;;;8.67;7.33;;;;;21.62;84.08;101264.50;4889339;29;45697;-85
2023/09/26 00:50:55;;;;;;;;;8.33;8.00;;;;;21.83;83.83;101252.25;4886362;29;47878;-85
2023/09/26 00:53:24;;;;;;;;;11.00;11.00;;;;;21.81;83.21;101259.53;4869191;29;45981;-84
2023/09/26 00:55:54;;;;;;;;;14.33;12.00;;;;;21.77;83.03;101250.63;4885226;29;45911;-85
2023/09/26 00:58:22;;;;;;;;;9.33;9.33;;;;;21.80;82.48;101256.91;4884647;29;45539;-85
2023/09/26 01:00:50;;;;;;;;;9.00;9.00;;;;;21.84;82.82;101245.06;4887401;29;45531;-84
2023/09/26 01:03:16;;;;;;;;;10.33;10.33;;;;;21.71;82.23;101249.88;4871146;29;45446;-84
2023/09/26 01:05:44;;;;;;;;;9.00;9.00;;;;;21.73;81.72;101232.69;4886674;29;45464;-84
2023/09/26 01:08:16;;;;;;;;;10.67;9.67;;;;;21.72;81.11;101252.53;4904775;29;45372;-85
2023/09/26 01:10:43;;;;;;;;;9.00;9.00;;;;;21.71;80.87;101239.03;4885040;29;47357;-84
2023/09/26 01:13:09;;;;;;;;;8.33;8.00;;;;;21.74;80.96;101247.09;4885881;29;45417;-84
2023/09/26 01:15:41;;;;;;;;;11.33;11.33;;;;;21.88;80.79;101247.66;4869047;29;45411;-83
2023/09/26 01:18:12;;;;;;;;;12.33;10.67;;;;;21.68;80.91;101229.19;4886576;29;45442;-85
2023/09/26 01:20:39;;;;;;;;;10.33;10.33;;;;;21.70;80.44;101259.81;4870811;29;47676;-86
2023/09/26 01:23:06;;;;;;;;;9.00;9.00;;;;;21.64;81.10;101222.06;4870518;29;45456;-85
2023/09/26 01:25:33;;;;;;;;;11.00;10.00;;;;;21.73;80.61;101229.06;4885252;29;45427;-85
2023/09/26 01:28:04;;;;;;;;;12.00;9.67;;;;;21.64;80.28;101232.88;4884617;29;45412;-84
2023/09/26 01:31:39;;;;;;;;;11.67;9.33;;;;;21.97;79.46;101227.56;4883551;29;47159;-85
2023/09/26 01:34:11;;;;;;;;;9.50;8.50;;;;;21.72;79.25;101198.41;4885058;29;45492;-85
2023/09/26 01:36:36;;;;;;;;;9.00;8.67;;;;;21.61;79.21;101216.69;4884129;29;45452;-84
2023/09/26 01:39:02;;;;;;;;;10.00;8.67;;;;;21.62;78.76;101213.09;4868175;29;45891;-84
2023/09/26 01:41:28;;;;;;;;;12.33;11.00;;;;;21.62;78.04;101212.19;4884715;29;46561;-85
2023/09/26 01:43:54;;;;;;;;;9.00;9.00;;;;;21.58;77.33;101205.97;4883996;29;45528;-86
2023/09/26 01:46:21;;;;;;;;;10.00;10.00;;;;;21.58;77.01;101208.66;4869437;29;45800;-86
2023/09/26 01:48:47;;;;;;;;;8.67;8.67;;;;;21.47;76.93;101198.13;4885781;29;45405;-87
2023/09/26 01:51:13;;;;;;;;;7.00;7.00;;;;;21.48;75.64;101216.13;4868036;29;48258;-85
2023/09/26 01:53:39;;;;;;;;;7.00;7.00;;;;;21.43;76.01;101223.47;4886020;29;45436;-85
2023/09/26 01:56:05;;;;;;;;;9.33;9.33;;;;;21.44;75.81;101232.47;4867481;29;45379;-85
2023/09/26 01:58:31;;;;;;;;;11.67;11.67;;;;;21.46;75.80;101231.50;4867881;29;45616;-84
2023/09/26 02:00:56;;;;;;;;;9.67;7.67;;;;;21.45;75.86;101228.81;4867530;29;48650;-85
2023/09/26 02:03:22;;;;;;;;;9.00;9.00;;;;;21.44;75.71;101233.34;4884302;29;45139;-84
2023/09/26 02:05:47;;;;;;;;;10.00;9.00;;;;;21.30;75.69;101201.16;4886015;29;45562;-85
2023/09/26 02:08:16;;;;;;;;;8.00;7.67;;;;;21.38;75.70;101210.00;4887452;29;45485;-86
2023/09/26 02:10:41;;;;;;;;;8.00;6.33;;;;;21.32;75.21;101228.19;4886031;29;47067;-85
2023/09/26 02:13:07;;;;;;;;;9.33;8.33;;;;;21.21;75.31;101209.50;4887500;29;45551;-83
2023/09/26 02:15:32;;;;;;;;;10.00;9.33;;;;;21.27;74.86;101221.97;4886818;29;45396;-85
2023/09/26 02:17:58;;;;;;;;;8.00;7.33;;;;;21.24;74.46;101216.66;4885877;29;45413;-84
2023/09/26 02:20:23;;;;;;;;;9.00;9.00;;;;;21.27;74.00;101222.91;4887596;29;45389;-86
2023/09/26 02:22:50;;;;;;;;;9.00;9.00;;;;;21.34;73.30;101220.94;4887113;29;45412;-85
2023/09/26 02:25:21;;;;;;;;;7.33;7.33;;;;;21.33;72.93;101220.06;4886136;29;45395;-85
2023/09/26 02:27:48;;;;;;;;;10.33;8.33;;;;;21.32;71.92;101218.25;4870766;29;45424;-84
2023/09/26 02:30:26;;;;;;;;;6.00;6.00;;;;;21.42;71.26;101199.13;4870377;29;47124;-85
2023/09/26 02:32:51;;;;;;;;;6.67;6.67;;;;;21.10;70.89;101189.91;4887625;29;45484;-84
2023/09/26 02:35:19;;;;;;;;;4.67;4.67;;;;;21.33;70.22;101209.22;4886428;29;45405;-86
2023/09/26 02:37:46;;;;;;;;;7.00;7.00;;;;;21.30;70.07;101208.41;4891153;29;45507;-85
2023/09/26 02:40:12;;;;;;;;;7.00;7.00;;;;;21.27;69.95;101195.84;4889332;29;46563;-83
2023/09/26 02:42:44;;;;;;;;;8.00;8.00;;;;;21.43;70.34;101179.25;4888561;29;45415;-85
2023/09/26 02:48:31;;;;;;;;;6.00;6.00;;;;;21.22;69.84;101176.09;4890884;29;45455;-84
2023/09/26 02:51:05;;;;;;;;;6.33;6.33;;;;;21.41;69.72;101170.25;4889396;29;45396;-85
2023/09/26 02:53:31;;;;;;;;;6.67;6.67;;;;;21.09;70.15;101177.34;4872769;29;45494;-85
2023/09/26 02:55:56;;;;;;;;;7.00;5.33;;;;;21.10;70.23;101184.50;4889989;29;45423;-84
2023/09/26 02:58:22;;;;;;;;;7.67;7.67;;;;;21.12;70.04;101186.25;4874477;29;45436;-85
2023/09/26 03:00:50;;;;;;;;;6.33;6.33;;;;;21.18;70.04;101182.50;4872332;29;47982;-85
2023/09/26 03:03:15;;;;;;;;;9.00;8.33;;;;;21.01;70.36;101192.84;4887630;29;45511;-85
2023/09/26 03:05:48;;;;;;;;;10.00;7.67;;;;;21.20;70.69;101193.31;4871757;29;45427;-85
2023/09/26 03:08:14;;;;;;;;;10.33;9.67;;;;;20.94;70.94;101178.53;4873162;29;44885;-84
2023/09/26 03:10:40;;;;;;;;;10.33;8.67;;;;;21.00;71.25;101180.22;4890910;29;45379;-86
2023/09/26 03:13:07;;;;;;;;;8.00;8.00;;;;;21.07;70.77;101171.06;4906514;29;45659;-85
2023/09/26 03:15:32;;;;;;;;;9.33;9.33;;;;;20.92;70.84;101175.88;4906157;29;45444;-84
2023/09/26 03:17:58;;;;;;;;;10.00;8.00;;;;;20.95;70.64;101183.03;4908621;29;45324;-85
2023/09/26 03:20:23;;;;;;;;;6.33;6.33;;;;;20.96;70.05;101179.41;4904921;29;47175;-86
2023/09/26 03:22:49;;;;;;;;;7.00;7.00;;;;;20.88;69.94;101168.75;4906316;29;45345;-86
2023/09/26 03:25:14;;;;;;;;;6.67;5.33;;;;;20.93;69.99;101172.25;4908452;29;44740;-85
2023/09/26 03:27:41;;;;;;;;;6.33;6.33;;;;;20.91;70.04;101170.50;4891656;29;45887;-85
2023/09/26 03:30:08;;;;;;;;;7.00;7.00;;;;;20.90;69.66;101175.00;4906808;29;47503;-85
2023/09/26 03:32:33;;;;;;;;;8.25;6.25;;;;;20.83;69.95;101172.50;4905194;29;45816;-85
2023/09/26 03:34:59;;;;;;;;;6.33;6.33;;;;;20.85;69.69;101184.16;4908024;29;45491;-84
2023/09/26 03:37:25;;;;;;;;;7.00;6.00;;;;;21.03;69.82;101170.25;4909139;28;45724;-84
2023/09/26 03:39:51;;;;;;;;;5.00;5.00;;;;;20.88;69.56;101175.97;4906641;29;48235;-85
2023/09/26 03:42:16;;;;;;;;;7.00;6.33;;;;;20.78;69.08;101157.28;4906445;29;44934;-85
2023/09/26 03:44:43;;;;;;;;;4.33;4.33;;;;;20.92;68.85;101173.16;4905251;29;45463;-85
2023/09/26 03:47:08;;;;;;;;;8.00;8.00;;;;;20.81;68.90;101169.81;4888852;29;44861;-85
2023/09/26 03:49:34;;;;;;;;;9.00;7.33;;;;;20.83;68.88;101157.16;4902979;28;47219;-85
2023/09/26 03:51:59;;;;;;;;;6.00;6.00;;;;;20.80;68.98;101168.03;4905337;29;45464;-84
2023/09/26 03:54:25;;;;;;;;;7.00;5.00;;;;;20.80;68.07;101164.44;4906289;29;44777;-86
2023/09/26 03:56:51;;;;;;;;;7.00;5.67;;;;;20.78;68.21;101161.75;4906878;29;45421;-86
2023/09/26 03:59:17;;;;;;;;;6.67;6.67;;;;;20.72;67.76;101165.50;4906332;29;46978;-86
2023/09/26 04:01:43;;;;;;;;;9.00;7.67;;;;;20.86;68.17;101151.66;4906902;29;45428;-86
2023/09/26 04:04:08;;;;;;;;;6.67;6.33;;;;;20.64;68.09;101153.06;4889064;29;45391;-86
2023/09/26 04:06:34;;;;;;;;;5.33;5.33;;;;;20.68;67.63;101152.06;4906718;29;45384;-85
2023/09/26 04:09:00;;;;;;;;;8.00;7.67;;;;;20.65;67.54;101141.34;4906111;29;46734;-85
2023/09/26 04:11:26;;;;;;;;;6.67;5.67;;;;;20.64;67.59;101144.94;4908737;29;44838;-85
2023/09/26 04:13:51;;;;;;;;;7.33;5.67;;;;;20.60;68.13;101143.25;4908488;28;45514;-84
2023/09/26 04:16:17;;;;;;;;;6.00;4.67;;;;;20.61;68.07;101145.91;4891906;29;45428;-84
2023/09/26 04:18:46;;;;;;;;;5.00;5.00;;;;;20.78;68.26;101132.03;4890826;29;47309;-86
2023/09/26 04:21:11;;;;;;;;;5.00;4.67;;;;;20.52;68.38;101130.75;4904315;29;45455;-84
2023/09/26 04:23:37;;;;;;;;;7.00;6.00;;;;;20.59;68.40;101134.25;4890808;29;45770;-85
2023/09/26 04:26:13;;;;;;;;;5.50;5.50;;;;;20.80;68.26;101132.88;4906106;29;45113;-84
2023/09/26 04:28:39;;;;;;;;;7.00;7.00;;;;;20.54;68.51;101128.91;4905835;29;45227;-86
2023/09/26 04:31:04;;;;;;;;;3.25;3.25;;;;;20.54;68.44;101131.63;4905917;29;45468;-85
2023/09/26 04:33:30;;;;;;;;;6.00;5.00;;;;;20.50;68.43;101132.59;4905689;29;45896;-86
2023/09/26 04:35:57;;;;;;;;;6.00;6.00;;;;;20.51;68.79;101144.28;4908145;29;45450;-83
2023/09/26 04:38:23;;;;;;;;;8.67;8.67;;;;;20.47;68.85;101143.47;4908251;29;46118;-84
2023/09/26 04:40:48;;;;;;;;;6.67;6.00;;;;;20.44;68.76;101146.25;4905438;29;45409;-86
2023/09/26 04:43:14;;;;;;;;;8.33;6.00;;;;;20.45;68.93;101139.91;4890562;28;45394;-85
2023/09/26 04:45:39;;;;;;;;;7.00;5.50;;;;;20.46;68.89;101144.41;4906086;29;45614;-84
2023/09/26 04:48:05;;;;;;;;;8.75;7.50;;;;;20.43;68.92;101138.16;4907595;29;45451;-84
2023/09/26 04:50:31;;;;;;;;;6.00;6.00;;;;;20.37;68.70;101133.75;4907384;28;45308;-85
2023/09/26 04:52:57;;;;;;;;;8.33;8.00;;;;;20.44;68.99;101138.13;4889753;29;45386;-86
2023/09/26 04:55:23;;;;;;;;;6.33;6.33;;;;;20.34;69.10;101129.31;4907934;29;45609;-87
2023/09/26 04:58:38;;;;;;;;;6.33;5.00;;;;;20.66;68.48;101129.59;4906727;29;47405;-86
2023/09/26 05:01:15;;;;;;;;;6.33;6.33;;;;;20.55;68.93;101127.97;4907989;29;45438;-87
2023/09/26 05:03:42;;;;;;;;;8.00;7.33;;;;;20.35;69.27;101119.41;4906726;29;45435;-85
2023/09/26 05:06:08;;;;;;;;;4.67;4.67;;;;;20.33;69.12;101124.81;4904949;29;45805;-85
2023/09/26 05:08:34;;;;;;;;;7.33;5.33;;;;;20.26;69.20;101119.56;4904367;29;47625;-87
2023/09/26 05:10:59;;;;;;;;;7.25;7.00;;;;;20.25;69.33;101125.91;4905929;29;44708;-84
2023/09/26 05:13:25;;;;;;;;;6.25;6.25;;;;;20.25;69.47;101118.69;4905466;29;45417;-85
2023/09/26 05:15:51;;;;;;;;;5.00;5.00;;;;;20.25;69.53;101117.81;4905434;29;45359;-85
2023/09/26 05:18:16;;;;;;;;;5.50;5.50;;;;;20.24;69.55;101122.31;4889351;29;47081;-86
2023/09/26 05:20:42;;;;;;;;;9.00;7.25;;;;;20.25;69.91;101123.22;4906408;29;45471;-86
2023/09/26 05:23:07;;;;;;;;;8.33;7.00;;;;;20.28;69.32;101117.72;4905808;29;45424;-86
2023/09/26 05:25:33;;;;;;;;;4.33;4.33;;;;;20.29;69.74;101116.81;4908293;29;45886;-85
2023/09/26 05:27:59;;;;;;;;;8.67;7.33;;;;;20.24;69.88;101116.94;4907476;28;45216;-85
2023/09/26 05:30:25;;;;;;;;;7.00;6.00;;;;;20.25;69.77;101120.50;4906676;29;45085;-85
2023/09/26 05:32:50;;;;;;;;;6.67;6.67;;;;;20.27;69.70;101107.88;4906301;29;45411;-85
2023/09/26 05:35:16;;;;;;;;;8.00;7.67;;;;;20.25;69.67;101096.19;4889402;29;45416;-83
2023/09/26 05:37:41;;;;;;;;;5.67;5.67;;;;;20.22;69.85;101096.25;4907995;29;45417;-85
2023/09/26 05:40:09;;;;;;;;;6.67;6.67;;;;;20.32;69.97;101104.16;4904859;29;45526;-84
2023/09/26 05:42:38;;;;;;;;;10.67;8.00;;;;;20.45;69.95;101112.88;4909194;29;45384;-84
2023/09/26 05:45:12;;;;;;;;;7.33;7.33;;;;;20.36;69.75;101113.09;4908808;29;45463;-85
2023/09/26 05:47:38;;;;;;;;;7.33;7.33;;;;;20.22;69.76;101109.75;4891778;29;48314;-86
2023/09/26 05:50:04;;;;;;;;;6.67;6.67;;;;;20.24;69.87;101107.91;4908613;29;45478;-86
2023/09/26 05:52:35;;;;;;;;;7.33;7.33;;;;;20.47;69.86;101102.06;4907321;29;45561;-86
2023/09/26 05:55:01;;;;;;;;;5.50;5.50;;;;;20.20;70.18;101109.81;4907372;29;45352;-86
2023/09/26 05:57:27;;;;;;;;;8.25;8.25;;;;;20.18;70.26;101101.72;4909708;29;46302;-86
2023/09/26 05:59:53;;;;;;;;;7.00;7.00;;;;;20.21;70.45;101099.88;4910118;29;45811;-86
2023/09/26 06:02:18;;;;;;;;;10.00;7.00;;;;;20.27;70.43;101102.47;4928122;28;45389;-87
2023/09/26 06:04:45;;;;;;;;;7.00;7.00;;;;;20.39;70.56;101107.59;4929904;28;45394;-87
2023/09/26 06:07:11;;;;;;;;;8.00;8.00;;;;;20.28;70.53;101093.41;4912509;28;47321;-84
2023/09/26 06:09:37;;;;;;;;;7.00;7.00;;;;;20.33;70.34;101102.34;4915874;28;45493;-85
2023/09/26 06:12:04;;;;;;;;;11.00;7.00;;;;;20.44;70.10;101111.13;4890228;29;45534;-86
2023/09/26 06:14:30;;;;;;;;;8.00;8.00;;;;;20.36;70.18;101111.28;4900141;28;45301;-85
2023/09/26 06:16:56;;;;;;;;;7.00;7.00;;;;;20.40;70.19;101098.59;4929757;28;46933;-85
2023/09/26 06:19:21;;;;;;;;;8.33;8.33;;;;;20.46;69.90;101098.47;4931938;28;44789;-85
2023/09/26 06:22:37;;;;;;;;;7.33;7.00;;;;;20.80;69.01;101113.06;4930244;28;45376;-85
2023/09/26 06:25:04;;;;;;;;;11.00;8.67;;;;;20.49;69.79;101117.31;4918665;28;45234;-85
2023/09/26 06:27:37;;;;;;;;;11.00;10.33;;;;;20.68;69.76;101119.63;4927494;28;46179;-85
2023/09/26 06:30:04;;;;;;;;;9.33;8.00;;;;;20.52;69.90;101109.16;4929307;28;45303;-85
2023/09/26 06:32:30;;;;;;;;;12.33;10.00;;;;;20.52;69.90;101087.53;4928313;28;45570;-86
2023/09/26 06:34:59;;;;;;;;;7.33;7.33;;;;;20.84;69.38;101104.84;4927502;28;45570;-85
2023/09/26 06:37:25;;;;;;;;;7.00;7.00;;;;;20.63;69.67;101105.34;4927334;28;47154;-86
2023/09/26 06:40:00;;;;;;;;;9.00;8.33;;;;;20.97;69.57;101100.97;4921706;28;45360;-86
2023/09/26 06:42:26;;;;;;;;;5.33;5.33;;;;;20.79;69.05;101106.78;4910325;28;45809;-85
2023/09/26 06:44:51;;;;;;;;;8.00;8.00;;;;;20.87;68.77;101110.22;4910942;28;45574;-85
2023/09/26 06:47:17;;;;;;;;;9.00;9.00;;;;;20.92;68.91;101099.28;4913856;28;48116;-85
2023/09/26 06:49:43;;;;;;;;;10.00;8.67;;;;;21.01;68.05;101100.91;4894784;29;44943;-85
2023/09/26 06:52:11;;;;;;;;;9.67;9.67;;;;;21.40;67.79;101103.56;4893890;29;45349;-87
2023/09/26 06:54:37;;;;;;;;;7.00;7.00;;;;;21.22;67.88;101104.91;4878011;29;45653;-82
2023/09/26 06:57:03;;;;;;;;;7.33;6.67;;;;;21.28;68.07;101102.03;4894007;29;45424;-84
2023/09/26 06:59:28;;;;;;;;;7.00;7.00;;;;;21.42;67.28;101112.53;4893294;28;45373;-85
2023/09/26 07:01:55;;;;;;;;;9.67;6.33;;;;;21.58;66.99;101104.00;4894111;29;44780;-86
2023/09/26 07:04:20;;;;;;;;;9.00;7.33;;;;;21.59;66.41;101099.47;4905044;28;44821;-86
2023/09/26 07:06:46;;;;;;;;;6.00;6.00;;;;;21.71;65.17;101107.28;4907834;28;46763;-85
2023/09/26 07:09:15;;;;;;;;;7.67;7.33;;;;;21.75;65.60;101110.78;4913796;28;44668;-85
2023/09/26 07:12:37;;;;;;;;;5.00;5.00;;;;;22.17;65.37;101110.56;4913255;28;45519;-88
2023/09/26 07:15:03;;;;;;;;;13.67;9.33;;;;;21.98;65.26;101134.56;4911634;29;44845;-86
2023/09/26 07:17:36;;;;;;;;;13.00;8.00;;;;;22.08;64.61;101125.25;4913658;28;46815;-86
2023/09/26 07:20:04;;;;;;;;;7.00;7.00;;;;;22.09;64.86;101116.19;4932837;28;45456;-85
2023/09/26 07:22:30;;;;;;;;;8.00;8.00;;;;;22.26;64.59;101118.47;4914713;28;45423;-86
2023/09/26 07:25:00;;;;;;;;;9.00;9.00;;;;;22.52;63.84;101117.72;4893956;29;45461;-86
2023/09/26 07:30:47;;;;;;;;;12.00;8.00;;;;;22.61;63.79;101118.38;5095416;23;44979;-86
2023/09/26 07:40:36;;;;;;;;;;;;;;;;;;;;;
2023/09/26 07:43:15;;;;;;;;;;;;;;;;;;;;;
2023/09/26 07:48:54;;;;;;;;;8.00;8.00;;;;;22.38;63.64;101106.38;4899650;28;45573;-84
2023/09/26 08:02:11;;;;;;;;;8.67;7.00;;;;;22.83;63.20;101130.34;4915134;28;45540;-85
2023/09/26 08:23:18;;;;;;;;;9.00;8.67;;;;;23.32;60.59;101155.94;4250360;23;46304;-85
2023/09/26 08:26:20;;;;;;;;;7.25;7.25;;;;;23.11;59.99;101099.66;4932654;28;45394;-86
2023/09/26 08:28:55;;;;;;;;;10.33;9.00;;;;;23.07;61.04;101117.00;4920042;28;45614;-85
2023/09/26 08:48:39;;;;;;;;;8.25;8.00;;;;;23.18;61.76;101131.06;4908470;28;45670;-80
2023/09/26 09:04:23;;;;;;;;;7.67;7.67;;;;;23.32;61.13;101119.78;2897777;23;45669;-79
2023/09/26 09:07:33;;;;;;;;;;;;;;;;;;;;;
2023/09/26 09:10:22;;;;;;;;;9.67;9.67;;;;;23.35;61.39;101112.44;5118029;23;46118;-81
2023/09/26 09:13:04;;;;;;;;;8.00;8.00;;;;;23.36;61.75;101095.19;5185056;23;45504;-85
2023/09/26 09:15:49;;;;;;;;;7.33;7.33;;;;;23.41;61.08;101091.44;4958702;28;45194;-83
2023/09/26 09:18:50;;;;;;;;;8.00;7.00;;;;;23.34;61.27;101083.50;4955095;28;46054;-84
2023/09/26 09:21:51;;;;;;;;;;;;;;;;;;;;;
2023/09/26 09:24:36;;;;;;;;;12.67;11.67;;;;;23.57;60.52;101130.69;4965844;28;72196;-89
2023/09/26 09:28:16;;;;;;;;;9.00;7.67;;;;;23.63;61.06;101127.81;4954141;28;45588;-80
2023/09/26 09:34:37;;;;;;;;;9.00;9.00;;;;;23.62;60.54;101097.97;4953602;28;45505;-80
2023/09/26 09:37:53;;;;;;;;;;;;;;;;;;;;;
2023/09/26 09:40:59;;;;;;;;;8.00;8.00;;;;;24.01;59.74;101125.59;4900887;28;68006;-79
2023/09/26 09:44:21;;;;;;;;;;;;;;;;;;;;;
2023/09/26 09:51:32;;;;;;;;;;;;;;;;;;;;;
2023/09/26 09:58:54;;;;;;;;;12.33;10.33;;;;;24.30;60.39;101134.53;4901024;28;45557;-83
2023/09/26 10:02:11;;;;;;;;;;;;;;;;;;;;;
2023/09/26 10:04:56;;;;;;;;;10.33;8.67;;;;;24.41;60.87;101137.72;4827430;29;44746;-80
2023/09/26 10:08:12;;;;;;;;;;;;;;;;;;;;;
2023/09/26 10:23:10;;;;;;;;;10.00;10.00;;;;;24.96;58.80;101102.09;4891873;29;45495;-80
2023/09/26 10:26:07;;;;;;;;;;;;;;;;;;;;;
2023/09/26 11:01:52;;;;;;;;;7.00;7.00;;;;;25.91;56.12;101094.53;4722642;30;45625;-81
2023/09/26 11:04:33;;;;;;;;;;;;;;;;;;;;;
2023/09/26 11:07:20;;;;;;;;;8.25;8.25;;;;;26.06;56.52;101082.97;4692031;30;66374;-78
2023/09/26 12:29:05;;;;;;;;;;;;;;;;;;;;;
2023/09/26 12:32:02;;;;;;;;;4.50;3.00;;;;;29.18;46.76;101049.59;4894666;28;74618;-81
2023/09/26 12:34:56;;;;;;;;;6.75;5.00;;;;;29.25;47.22;101034.59;4903631;28;45329;-80
2023/09/26 12:41:52;;;;;;;;;4.00;4.00;;;;;29.23;46.73;101020.09;4924445;28;44861;-83
2023/09/26 12:45:24;;;;;;;;;4.00;4.00;;;;;29.49;47.08;101036.81;4816649;29;45159;-81
2023/09/26 12:52:08;;;;;;;;;5.75;5.25;;;;;29.73;46.64;101028.09;4842027;29;44939;-81
2023/09/26 12:59:34;;;;;;;;;;;;;;;;;;;;;
2023/09/26 13:42:11;;;;;;;;;3.50;3.50;;;;;31.10;43.95;101000.97;4804331;29;44964;-85
2023/09/26 13:44:51;;;;;;;;;4.00;4.00;;;;;31.16;42.77;101000.56;4800952;29;45379;-79
2023/09/26 13:51:57;;;;;;;;;;;;;;;;;;;;;
2023/09/26 13:54:52;;;;;;;;;4.00;4.00;;;;;31.13;43.44;101005.38;4708899;30;68404;-79
2023/09/26 14:09:16;;;;;;;;;;;;;;;;;;;;;
2023/09/26 14:12:27;;;;;;;;;;;;;;;;;;;;;
2023/09/26 14:30:04;;;;;;;;;;;;;;;;;;;;;
2023/09/26 14:33:20;;;;;;;;;3.67;3.67;;;;;30.45;42.60;100950.34;4610237;30;71719;-78
2023/09/26 14:36:24;;;;;;;;;4.33;4.33;;;;;30.36;41.78;100936.34;4576712;31;45705;-79
2023/09/26 14:45:02;;;;;;;;;5.75;5.75;;;;;30.63;42.93;100977.56;4603530;30;45447;-82
2023/09/26 14:59:44;;;;;;;;;2.00;2.00;;;;;30.88;41.36;100961.25;4630836;30;45000;-80
2023/09/26 15:08:43;;;;;;;;;5.50;5.25;;;;;30.66;42.36;100969.13;4797693;29;45076;-80
2023/09/26 15:11:36;;;;;;;;;;;;;;;;;;;;;
2023/09/26 15:14:20;;;;;;;;;9.33;9.33;;;;;30.79;42.49;100989.28;4818577;29;68256;-78
2023/09/26 15:17:43;;;;;;;;;;;;;;;;;;;;;
2023/09/26 15:20:50;;;;;;;;;6.00;6.00;;;;;30.72;42.43;100985.19;4804400;29;75662;-81
2023/09/26 15:23:42;;;;;;;;;6.50;4.25;;;;;30.52;42.51;100956.31;4813919;29;45402;-80
2023/09/26 15:26:21;;;;;;;;;4.50;4.00;;;;;30.27;42.50;100951.53;4814478;29;45730;-79
2023/09/26 15:28:52;;;;;;;;;4.75;4.75;;;;;30.58;42.80;100977.88;4856587;29;44918;-80
2023/09/26 15:31:30;;;;;;;;;6.33;6.33;;;;;30.22;42.97;100954.56;4869515;29;45615;-80
2023/09/26 15:34:31;;;;;;;;;6.67;6.67;;;;;30.46;42.73;100960.34;4889044;29;45839;-79
2023/09/26 15:37:12;;;;;;;;;8.00;8.00;;;;;30.41;43.05;100943.28;4860702;29;45400;-79
2023/09/26 15:40:33;;;;;;;;;7.33;7.33;;;;;30.34;42.95;100936.47;4889855;29;45571;-85
2023/09/26 15:46:27;;;;;;;;;10.00;9.00;;;;;30.27;43.25;100924.09;4786012;29;44847;-84
2023/09/26 15:49:59;;;;;;;;;5.50;5.50;;;;;30.33;43.44;100933.81;4848876;29;45640;-87
2023/09/26 15:53:14;;;;;;;;;;;;;;;;;;;;;
2023/09/26 16:00:24;;;;;;;;;5.25;4.00;;;;;30.31;43.43;100944.88;4782710;29;45358;-85
2023/09/26 16:02:56;;;;;;;;;5.50;5.50;;;;;30.22;43.42;100972.91;4834582;29;45364;-87
2023/09/26 16:05:21;;;;;;;;;6.25;6.25;;;;;30.10;43.61;100964.47;4822137;29;44941;-87
2023/09/26 16:08:01;;;;;;;;;4.75;4.75;;;;;30.00;43.66;100924.91;4836005;29;47389;-87
2023/09/26 16:11:07;;;;;;;;;6.25;6.25;;;;;30.18;43.54;100966.72;4874913;29;45590;-86
2023/09/26 16:14:00;;;;;;;;;5.33;5.33;;;;;30.07;43.55;100972.88;4908520;29;44968;-85
2023/09/26 16:16:39;;;;;;;;;6.25;6.25;;;;;29.97;43.23;100973.59;4886202;29;45762;-84
2023/09/26 16:19:23;;;;;;;;;;;;;;;;;;;;;
2023/09/26 16:25:35;;;;;;;;;6.00;6.00;;;;;29.24;43.84;100971.66;4891058;29;45559;-86
2023/09/26 16:27:43;;;;;;;;;5.25;5.25;;;;;29.11;44.34;100988.84;4885136;29;45505;-85
2023/09/26 16:30:15;;;;;;;;;5.75;5.75;;;;;29.06;44.45;100971.75;4893455;29;47725;-85
2023/09/26 16:33:10;;;;;;;;;0.25;0.25;;;;;29.00;44.91;100987.69;4893989;29;45503;-85
2023/09/26 16:35:46;;;;;;;;;4.75;4.25;;;;;28.69;45.04;100984.88;4894507;29;44811;-87
2023/09/26 16:38:18;;;;;;;;;7.00;5.25;;;;;28.73;45.20;100967.31;4909045;29;45461;-87
2023/09/26 16:40:48;;;;;;;;;5.25;4.75;;;;;28.48;45.00;100986.97;4924328;28;45384;-87
2023/09/26 16:43:14;;;;;;;;;7.25;5.75;;;;;28.42;45.09;100989.16;4926796;28;44853;-87
2023/09/26 16:45:41;;;;;;;;;5.50;5.50;;;;;28.31;45.57;100987.03;4913863;29;44710;-89
2023/09/26 16:48:12;;;;;;;;;7.50;5.75;;;;;28.41;45.23;100993.75;4913901;28;45450;-88
2023/09/26 16:50:38;;;;;;;;;4.75;4.75;;;;;27.83;46.10;100958.69;4912905;28;46325;-89
2023/09/26 16:53:04;;;;;;;;;4.00;4.00;;;;;27.80;46.37;100986.19;4913058;29;45429;-88
2023/09/26 16:55:36;;;;;;;;;6.00;6.00;;;;;27.97;46.53;101010.78;4909900;29;45193;-86
2023/09/26 16:58:03;;;;;;;;;4.25;4.25;;;;;27.97;46.17;101029.91;4911528;29;45351;-87
2023/09/26 17:00:29;;;;;;;;;6.00;5.25;;;;;27.73;46.97;101029.34;4911447;29;46725;-86
2023/09/26 17:02:55;;;;;;;;;7.67;5.67;;;;;27.54;46.47;101016.66;4911088;29;45341;-87
2023/09/26 17:05:21;;;;;;;;;5.67;5.67;;;;;27.70;47.11;101037.72;4911225;29;45734;-87
2023/09/26 17:07:47;;;;;;;;;5.75;5.75;;;;;27.32;47.58;101013.28;4911467;29;45579;-85
2023/09/26 17:10:12;;;;;;;;;7.33;6.00;;;;;27.34;47.25;101042.28;4910925;28;45181;-85
2023/09/26 17:16:00;;;;;;;;;5.75;5.75;;;;;27.16;48.25;101045.91;4892800;29;45492;-87
2023/09/26 17:18:26;;;;;;;;;5.50;5.50;;;;;27.07;48.27;101046.41;4905458;29;44885;-87
2023/09/26 17:20:55;;;;;;;;;7.25;7.25;;;;;27.00;48.07;101044.94;4889922;29;46339;-83
2023/09/26 17:23:21;;;;;;;;;7.33;7.00;;;;;26.93;48.17;101050.69;4904068;29;44883;-87
2023/09/26 17:25:47;;;;;;;;;6.00;6.00;;;;;26.85;48.15;101039.28;4904075;29;45524;-87
2023/09/26 17:28:13;;;;;;;;;8.50;8.00;;;;;26.84;48.89;101039.34;4904577;29;44887;-87
2023/09/26 17:30:38;;;;;;;;;6.67;6.67;;;;;26.69;49.05;101038.25;4904867;29;46975;-88
2023/09/26 17:33:04;;;;;;;;;7.00;7.00;;;;;26.64;49.34;101040.31;4905171;29;45347;-89
2023/09/26 17:35:30;;;;;;;;;8.67;7.00;;;;;26.58;49.29;101038.75;4905158;29;45456;-89
2023/09/26 17:37:57;;;;;;;;;7.00;5.67;;;;;26.45;49.22;101041.16;4905935;29;45530;-89
2023/09/26 17:40:31;;;;;;;;;6.50;6.50;;;;;26.66;49.00;101041.13;4906488;29;46967;-86
2023/09/26 17:42:57;;;;;;;;;7.00;7.00;;;;;26.32;49.36;101040.88;4893256;29;45334;-88
2023/09/26 17:45:23;;;;;;;;;9.00;7.00;;;;;26.25;49.89;101042.09;4909285;29;44920;-85
2023/09/26 17:47:49;;;;;;;;;6.00;5.75;;;;;26.20;50.20;101052.34;4891302;29;44884;-87
2023/09/26 17:50:15;;;;;;;;;8.25;8.25;;;;;26.16;50.04;101056.16;4889195;29;45475;-87
2023/09/26 17:52:40;;;;;;;;;7.00;7.00;;;;;26.08;49.93;101061.97;4903958;29;44999;-88
2023/09/26 17:55:07;;;;;;;;;8.50;6.75;;;;;26.06;50.32;101052.97;4903758;29;45487;-88
2023/09/26 17:57:32;;;;;;;;;10.67;7.67;;;;;25.96;50.40;101056.19;4888891;29;45252;-88